Terminal Aerodrome Forecast
Issued by NWS St Louis, MO

Home | Current Version | Previous Version | Text Only | Print | Product List | Glossary On
Versions: 1 2 3 4 5 6 7 8 9 10 11 12 13 14 15 16 17 18
000
FTUS43 KLSX 201700
TAFCOU
TAF
KCOU 201724Z 2018/2118 23013G20KT P6SM SCT040 BKN250
     FM210000 25008KT P6SM VCTS SCT040CB BKN070
     FM210600 29008KT P6SM SCT040
     FM211500 34011KT P6SM FEW040=

USA.gov is the U.S. government's official web portal to all federal, state and local government web resources and services.